Pagrindinis puslapis
METAR-TAF:

METAR-TAF

Oro uostai :

Tulonas, Prancūzija

platuma: 43-06N, ilguma: 006-09E, Aukštis: 3 m

Dabartinis oras

Ataskaita buvo paskelbta 26 minutes, ne 12:30 UTC
Vėjas 8 kt iš Pietvakarių
Temperatūra 14°C
Drėgmė 82%
Slėgis 1032 hPa
Matomumas 10 km arba daugiau
nėra debesų žemiau 1500 m ir nėra kamuolinių lietaus debesų

METAR: LFTH 251230Z AUTO 22008KT CAVOK 14/11 Q1032 NOSIG

Laikas: 13:56 (12:56 UTC)

Prognozė

Ataskaita buvo paskelbta 4 valandos ir 56 minutes, ne 08:00 UTC
Prognozė galioja nuo 25 metu 09 UTC su 26 metu 09 UTC
Vėjas 3 kt nuo kintamojo kryptimis
Matomumas 10 km arba daugiau
nėra debesų žemiau 1500 m ir nėra kamuolinių lietaus debesų
Tapsmas
nuo 25 metu 10 UTC su 25 metu 12 UTC
Vėjas 5 kt iš Pietvakarių
Tapsmas
nuo 25 metu 20 UTC su 25 metu 22 UTC
Vėjas 5 kt iš Šiaurės
Laikinai
nuo 25 metu 21 UTC su 26 metu 06 UTC
Matomumas: 4000 m
rūkana

TAF: LFTH 250800Z 2509/2609 VRB03KT CAVOK BECMG 2510/2512 23005KT BECMG 2520/2522 35005KT TEMPO 2521/2606 4000 BR

Orai ataskaitas ir orų prognozės (METAR, TAF).

turimą stotys yra geltonos ir raudonos taškus žemėlapyje.

Perkelti pele per norėdami pamatyti stoties vardą.

Tada spustelėkite, norėdami matyti oro stebėjimo ir prognozės.

Norėdami pakeisti žemėlapį: spustelėkite ant žalios mygtukų su juodo kryžiaus žemyn,; žalią mygtuką su brūkšneliu, jei norite nutolinti; arba žalių rodyklių gretimoms žemėlapius.


METAR-TAF: